Time;durP1;ratioP1;P1;durP2;ratioP2;P2;SDS_P1;SDS_P2;PMS_P1;PMS_P2;Temp;Humidity;BMP_temperature;BMP_pressure;BME280_temperature;BME280_humidity;BME280_pressure;Samples;Min_cycle;Max_cycle;Signal;HPM_P1;HPM_P2
2022/07/12 00:01:08;;;;;;;0.90;0.10;;;;;;;15.87;79.85;99706.56;1723733;82;21303;-72
2022/07/12 00:03:35;;;;;;;1.30;0.10;;;;;;;15.86;79.88;99706.27;1709192;82;21079;-71
2022/07/12 00:06:02;;;;;;;0.33;0.20;;;;;;;15.84;80.96;99695.78;1713573;82;21113;-71
2022/07/12 00:08:28;;;;;;;0.15;0.10;;;;;;;15.80;80.74;99701.84;1721678;82;21074;-73
2022/07/12 00:10:54;;;;;;;;;;;;;;;15.75;81.07;99704.73;1726514;82;21110;-71
2022/07/12 00:13:20;;;;;;;0.20;0.10;;;;;;;15.64;81.77;99711.45;1738979;81;20146;-74
2022/07/12 00:15:46;;;;;;;1.35;0.10;;;;;;;15.44;83.05;99711.29;1744657;81;21170;-73
2022/07/12 00:18:13;;;;;;;0.10;0.10;;;;;;;15.33;84.29;99710.27;1731794;81;21128;-71
2022/07/12 00:20:39;;;;;;;1.77;0.10;;;;;;;15.25;85.35;99709.80;1744974;81;20986;-71
2022/07/12 00:23:05;;;;;;;0.85;0.10;;;;;;;15.18;85.88;99705.38;1724318;81;20994;-71
2022/07/12 00:25:31;;;;;;;0.50;0.10;;;;;;;15.16;86.36;99700.77;1704137;83;21104;-72
2022/07/12 00:27:57;;;;;;;1.67;0.20;;;;;;;15.16;85.71;99698.58;1699972;84;21502;-72
2022/07/12 00:30:23;;;;;;;2.72;0.80;;;;;;;15.17;85.45;99698.89;1696270;84;21585;-73
2022/07/12 00:32:49;;;;;;;4.03;0.30;;;;;;;15.17;86.08;99702.38;1698756;84;21031;-71
2022/07/12 00:35:17;;;;;;;2.60;0.10;;;;;;;15.16;86.47;99705.30;1768138;81;21104;-70
2022/07/12 00:37:43;;;;;;;1.05;0.10;;;;;;;15.18;86.51;99701.84;1771008;80;21103;-74
2022/07/12 00:40:12;;;;;;;0.35;0.15;;;;;;;15.20;86.42;99702.45;1773304;80;21030;-71
2022/07/12 00:42:39;;;;;;;1.05;0.20;;;;;;;15.19;85.67;99707.52;1777621;80;20990;-72
2022/07/12 00:45:07;;;;;;;4.33;0.10;;;;;;;15.16;85.54;99708.81;1744629;80;20983;-70
2022/07/12 00:47:40;;;;;;;4.33;0.57;;;;;;;15.14;85.47;99704.72;1708983;83;21530;-71
2022/07/12 00:50:14;;;;;;;1.22;0.10;;;;;;;15.13;85.87;99706.59;1716332;83;21016;-72
2022/07/12 00:52:43;;;;;;;1.77;0.10;;;;;;;15.12;86.79;99703.59;1682503;84;21547;-73
2022/07/12 00:55:12;;;;;;;0.20;0.20;;;;;;;15.11;87.38;99695.80;1683669;83;21634;-71
2022/07/12 00:57:39;;;;;;;2.40;0.50;;;;;;;15.10;87.47;99699.53;1728779;82;21015;-72
2022/07/12 01:00:09;;;;;;;0.10;0.10;;;;;;;15.08;85.25;99694.39;1738948;82;21042;-70
2022/07/12 01:02:37;;;;;;;0.10;0.10;;;;;;;15.08;85.60;99694.39;1745318;81;21576;-70
2022/07/12 01:05:07;;;;;;;1.10;0.10;;;;;;;15.10;86.76;99703.55;1747933;81;21516;-71
2022/07/12 01:07:35;;;;;;;0.75;0.20;;;;;;;15.10;86.98;99699.53;1745513;81;20946;-71
2022/07/12 01:10:03;;;;;;;0.28;0.15;;;;;;;15.11;86.76;99695.80;1741096;81;20993;-71
2022/07/12 01:12:30;;;;;;;0.33;0.10;;;;;;;15.11;86.59;99706.02;1765153;80;20978;-70
2022/07/12 01:14:58;;;;;;;0.85;0.10;;;;;;;15.12;86.21;99696.89;1776235;79;21100;-73
2022/07/12 01:17:27;;;;;;;0.62;0.10;;;;;;;15.14;86.31;99695.31;1772873;79;20974;-72
2022/07/12 01:19:56;;;;;;;0.88;0.10;;;;;;;15.15;86.01;99694.28;1770940;81;20983;-71
2022/07/12 01:22:30;;;;;;;0.80;0.10;;;;;;;15.15;85.84;99684.89;1767654;81;21046;-71
2022/07/12 01:24:59;;;;;;;0.20;0.10;;;;;;;15.15;85.41;99687.57;1766376;79;21033;-73
2022/07/12 01:27:26;;;;;;;0.60;0.20;;;;;;;15.14;85.82;99690.79;1731226;82;21026;-72
2022/07/12 01:29:54;;;;;;;0.20;0.10;;;;;;;15.11;84.81;99689.91;1694807;83;21049;-72
2022/07/12 01:32:24;;;;;;;0.68;0.10;;;;;;;15.10;84.54;99681.55;1732855;81;20999;-73
2022/07/12 01:35:02;;;;;;;2.22;0.10;;;;;;;15.11;84.20;99675.14;1744224;81;21549;-71
2022/07/12 01:37:36;;;;;;;0.28;0.20;;;;;;;15.11;83.89;99682.39;1769095;80;21002;-71
2022/07/12 01:40:06;;;;;;;0.30;0.30;;;;;;;15.13;84.03;99678.41;1771319;80;21033;-71
2022/07/12 01:42:33;;;;;;;0.10;0.03;;;;;;;15.13;84.02;99673.03;1772271;80;21086;-71
2022/07/12 01:44:59;;;;;;;0.62;0.20;;;;;;;15.16;83.93;99678.45;1757530;79;20966;-71
2022/07/12 01:47:30;;;;;;;1.22;0.20;;;;;;;15.20;84.06;99676.95;1741283;80;21509;-70
2022/07/12 01:50:01;;;;;;;1.72;0.03;;;;;;;15.23;84.03;99683.71;1749645;80;21045;-72
2022/07/12 01:52:27;;;;;;;0.35;0.10;;;;;;;15.23;84.27;99680.49;1749477;80;21045;-72
2022/07/12 01:54:54;;;;;;;0.35;0.20;;;;;;;15.25;84.01;99681.07;1750802;80;21033;-72
2022/07/12 01:57:21;;;;;;;1.22;0.10;;;;;;;15.27;83.90;99688.89;1747315;79;21631;-72
2022/07/12 01:59:48;;;;;;;1.92;0.30;;;;;;;15.27;84.10;99691.05;1742539;80;21486;-71
2022/07/12 02:02:15;;;;;;;1.95;0.10;;;;;;;15.29;84.18;99690.82;1733496;80;21108;-71
2022/07/12 02:04:40;;;;;;;;;;;;;;;15.26;84.05;99691.31;1738171;81;21095;-71
2022/07/12 02:07:07;;;;;;;0.10;0.10;;;;;;;15.24;84.20;99692.88;1734382;81;20158;-70
2022/07/12 02:09:33;;;;;;;0.65;0.10;;;;;;;15.19;84.52;99696.78;1728418;81;21125;-70
2022/07/12 02:12:03;;;;;;;0.75;0.10;;;;;;;15.19;84.35;99698.13;1743895;81;21047;-71
2022/07/12 02:14:29;;;;;;;0.10;0.10;;;;;;;15.18;84.25;99694.63;1742478;81;21049;-71
2022/07/12 02:16:55;;;;;;;0.30;0.20;;;;;;;15.21;83.96;99696.02;1732109;81;20978;-70
2022/07/12 02:19:22;;;;;;;0.30;0.10;;;;;;;15.21;83.30;99705.42;1735286;82;21001;-70
2022/07/12 02:21:49;;;;;;;;;;;;;;;15.21;83.11;99703.27;1737183;81;21622;-71
2022/07/12 02:24:15;;;;;;;;;;;;;;;15.23;82.83;99701.16;1707284;82;20109;-70
2022/07/12 02:26:43;;;;;;;0.95;0.10;;;;;;;15.19;82.44;99701.63;1683461;84;20099;-71
2022/07/12 02:29:11;;;;;;;0.50;0.15;;;;;;;15.16;82.52;99706.64;1671917;84;21037;-70
2022/07/12 02:31:37;;;;;;;1.00;0.20;;;;;;;15.20;82.19;99718.56;1743946;81;21042;-71
2022/07/12 02:34:03;;;;;;;1.20;0.10;;;;;;;15.21;81.88;99713.47;1741473;81;20979;-77
2022/07/12 02:36:30;;;;;;;0.75;0.20;;;;;;;15.22;81.78;99719.14;1745200;81;21050;-76
2022/07/12 02:38:56;;;;;;;0.60;0.10;;;;;;;15.22;82.33;99717.80;1745728;81;20988;-72
2022/07/12 02:41:22;;;;;;;2.10;0.10;;;;;;;15.20;82.09;99729.30;1741240;81;21629;-74
2022/07/12 02:43:48;;;;;;;;;;;;;;;15.22;82.15;99736.59;1741110;81;21025;-72
2022/07/12 02:46:15;;;;;;;0.55;0.10;;;;;;;15.20;82.14;99730.65;1744536;80;20106;-72
2022/07/12 02:48:41;;;;;;;;;;;;;;;15.14;81.70;99729.71;1742451;81;21037;-72
2022/07/12 02:51:08;;;;;;;0.53;0.10;;;;;;;15.15;81.78;99734.02;1745816;81;20163;-73
2022/07/12 02:53:35;;;;;;;1.10;0.10;;;;;;;15.14;82.07;99728.37;1742531;81;21549;-71
2022/07/12 02:56:03;;;;;;;0.30;0.10;;;;;;;15.19;81.58;99728.47;1744138;81;21042;-71
2022/07/12 02:58:31;;;;;;;2.42;0.13;;;;;;;15.22;80.56;99729.05;1741468;81;21588;-74
2022/07/12 03:00:57;;;;;;;1.60;0.25;;;;;;;15.22;80.42;99734.41;1723149;81;21067;-73
2022/07/12 03:03:23;;;;;;;1.00;0.20;;;;;;;15.23;80.74;99730.70;1721683;82;21124;-73
2022/07/12 03:05:49;;;;;;;1.77;0.20;;;;;;;15.28;80.75;99728.94;1719131;82;21082;-73
2022/07/12 03:08:15;;;;;;;;;;;;;;;15.34;80.64;99728.00;1718286;82;21413;-72
2022/07/12 03:10:41;;;;;;;1.22;0.10;;;;;;;15.42;80.38;99732.19;1721556;82;20458;-72
2022/07/12 03:13:07;;;;;;;0.20;0.10;;;;;;;15.43;80.30;99727.66;1716835;81;21101;-72
2022/07/12 03:15:34;;;;;;;;;;;;;;;15.50;80.22;99721.11;1701580;82;21013;-73
2022/07/12 03:18:01;;;;;;;0.30;0.28;;;;;;;15.60;79.70;99725.88;1705600;82;20160;-74
2022/07/12 03:20:30;;;;;;;0.98;0.20;;;;;;;15.64;78.37;99731.59;1707254;82;21044;-77
2022/07/12 03:22:57;;;;;;;0.75;0.10;;;;;;;15.88;78.66;99724.30;1726926;82;21546;-75
2022/07/12 03:25:24;;;;;;;1.27;0.10;;;;;;;16.30;76.98;99726.73;1755767;80;21087;-71
2022/07/12 03:27:51;;;;;;;0.30;0.17;;;;;;;16.96;75.22;99720.35;1756835;80;21011;-73
2022/07/12 03:30:17;;;;;;;0.40;0.10;;;;;;;17.85;72.13;99713.23;1755740;81;21026;-72
2022/07/12 03:32:44;;;;;;;;;;;;;;;18.69;67.46;99724.09;1757981;80;21043;-73
2022/07/12 03:35:11;;;;;;;0.62;0.03;;;;;;;19.35;64.82;99727.03;1721680;82;20215;-73
2022/07/12 03:37:45;;;;;;;5.45;0.17;;;;;;;19.97;61.87;99718.14;1719680;82;21049;-72
2022/07/12 03:40:14;;;;;;;0.10;0.00;;;;;;;20.60;59.32;99719.36;1720662;82;21032;-72
2022/07/12 03:42:43;;;;;;;1.35;0.17;;;;;;;21.22;58.33;99726.11;1720913;82;21034;-74
2022/07/12 03:45:11;;;;;;;0.62;0.35;;;;;;;21.69;53.93;99728.98;1716199;80;21101;-74
2022/07/12 03:47:38;;;;;;;3.12;0.42;;;;;;;22.07;53.22;99729.36;1702278;83;21045;-74
2022/07/12 03:50:13;;;;;;;1.92;0.00;;;;;;;22.38;52.23;99724.33;1710920;82;21018;-77
2022/07/12 03:52:41;;;;;;;2.20;0.10;;;;;;;22.66;50.90;99729.03;1670638;84;21122;-74
2022/07/12 03:55:09;;;;;;;0.20;0.00;;;;;;;22.97;49.82;99730.12;1712418;82;21019;-74
2022/07/12 03:57:37;;;;;;;0.85;0.00;;;;;;;23.15;48.41;99733.25;1712874;82;21437;-75
2022/07/12 04:00:14;;;;;;;0.57;0.20;;;;;;;23.39;49.60;99726.48;1707103;82;21109;-74
2022/07/12 04:02:42;;;;;;;0.62;0.00;;;;;;;23.63;47.33;99727.85;1751798;80;21001;-74
2022/07/12 04:05:10;;;;;;;0.53;0.00;;;;;;;23.66;46.56;99730.80;1750889;80;20962;-74
2022/07/12 04:07:37;;;;;;;0.10;0.00;;;;;;;23.80;46.05;99740.45;1751278;80;21153;-76
2022/07/12 04:10:05;;;;;;;0.10;0.10;;;;;;;23.82;45.18;99735.53;1745247;80;21105;-75
2022/07/12 04:12:32;;;;;;;0.80;0.10;;;;;;;23.59;45.72;99736.34;1735149;80;21509;-74
2022/07/12 04:14:58;;;;;;;0.78;0.15;;;;;;;23.57;45.98;99740.70;1719130;82;21045;-75
2022/07/12 04:17:26;;;;;;;3.85;0.10;;;;;;;23.59;46.36;99739.05;1723119;82;21028;-77
2022/07/12 04:19:52;;;;;;;1.30;0.20;;;;;;;23.63;46.05;99737.38;1718500;82;21121;-75
2022/07/12 04:22:18;;;;;;;0.40;0.10;;;;;;;23.72;46.16;99739.72;1720581;81;21001;-77
2022/07/12 04:24:44;;;;;;;0.55;0.30;;;;;;;23.89;44.61;99745.52;1721704;82;21104;-76
2022/07/12 04:27:11;;;;;;;0.72;0.10;;;;;;;23.90;44.93;99743.59;1721883;82;21009;-75
2022/07/12 04:29:37;;;;;;;0.45;0.10;;;;;;;23.82;45.43;99743.69;1674410;83;21356;-75
2022/07/12 04:32:05;;;;;;;0.57;0.10;;;;;;;23.87;45.16;99742.84;1676512;84;21493;-74
2022/07/12 04:34:31;;;;;;;1.27;0.10;;;;;;;24.08;45.02;99740.66;1682707;83;21037;-74
2022/07/12 04:36:58;;;;;;;0.55;0.10;;;;;;;24.32;44.51;99741.13;1724062;82;21022;-74
2022/07/12 04:39:24;;;;;;;3.30;0.10;;;;;;;24.53;43.24;99746.58;1722053;82;21020;-75
2022/07/12 04:41:50;;;;;;;2.47;0.15;;;;;;;24.43;43.87;99742.06;1683386;83;21045;-75
2022/07/12 04:44:16;;;;;;;1.17;0.10;;;;;;;24.37;43.95;99744.59;1680368;83;21518;-74
2022/07/12 04:46:42;;;;;;;0.45;0.10;;;;;;;24.51;43.76;99747.40;1664964;84;21017;-73
2022/07/12 04:49:08;;;;;;;0.40;0.20;;;;;;;24.72;43.30;99746.55;1727225;82;21033;-75
2022/07/12 04:51:35;;;;;;;0.10;0.05;;;;;;;24.91;42.49;99751.17;1665601;84;20990;-74
2022/07/12 04:54:03;;;;;;;0.20;0.10;;;;;;;25.02;42.39;99745.80;1718281;82;21041;-75
2022/07/12 04:56:30;;;;;;;0.53;0.10;;;;;;;24.94;42.68;99748.66;1725486;82;21072;-77
2022/07/12 04:58:56;;;;;;;0.35;0.10;;;;;;;24.84;42.30;99751.53;1720106;82;21245;-76
2022/07/12 05:01:22;;;;;;;1.67;0.20;;;;;;;24.66;42.14;99755.36;1725536;80;21020;-77
2022/07/12 05:03:48;;;;;;;1.65;0.20;;;;;;;24.43;43.25;99760.30;1737148;80;21045;-75
2022/07/12 05:06:15;;;;;;;0.30;0.10;;;;;;;24.36;43.49;99765.34;1741052;80;21061;-69
2022/07/12 05:08:41;;;;;;;2.40;0.17;;;;;;;24.33;43.54;99764.55;1745040;80;21125;-69
2022/07/12 05:11:08;;;;;;;0.60;0.10;;;;;;;24.21;43.29;99771.80;1736559;80;21025;-70
2022/07/12 05:13:34;;;;;;;1.47;0.10;;;;;;;24.05;44.19;99772.00;1700553;83;21031;-71
2022/07/12 05:16:00;;;;;;;2.52;0.10;;;;;;;24.13;44.07;99774.63;1700356;83;21063;-72
2022/07/12 05:18:27;;;;;;;1.35;0.10;;;;;;;24.13;44.43;99773.27;1700975;83;21114;-73
2022/07/12 05:20:53;;;;;;;3.00;0.10;;;;;;;24.14;44.15;99777.59;1695722;83;21083;-73
2022/07/12 05:23:19;;;;;;;1.05;0.10;;;;;;;24.16;44.99;99775.38;1709406;83;21069;-74
2022/07/12 05:25:45;;;;;;;1.07;0.10;;;;;;;24.20;44.03;99779.13;1696935;83;21026;-76
2022/07/12 05:28:13;;;;;;;1.27;0.03;;;;;;;24.18;44.18;99788.71;1697192;83;21017;-70
2022/07/12 05:30:40;;;;;;;2.15;0.10;;;;;;;24.23;44.60;99779.12;1697622;83;21117;-75
2022/07/12 05:33:06;;;;;;;0.10;0.00;;;;;;;24.29;44.01;99780.10;1708671;80;21053;-68
2022/07/12 05:35:35;;;;;;;1.22;0.10;;;;;;;24.43;43.71;99781.56;1772271;80;21026;-73
2022/07/12 05:38:02;;;;;;;0.57;0.00;;;;;;;24.44;43.34;99782.36;1776742;80;21546;-73
2022/07/12 05:40:29;;;;;;;0.80;0.33;;;;;;;24.27;43.38;99788.31;1755309;80;21129;-67
2022/07/12 05:42:56;;;;;;;0.85;0.10;;;;;;;24.15;43.55;99789.28;1782030;80;21099;-72
2022/07/12 05:45:22;;;;;;;4.10;0.10;;;;;;;24.08;43.40;99793.74;1782953;80;20990;-72
2022/07/12 05:47:48;;;;;;;2.15;0.25;;;;;;;23.97;44.24;99790.88;1764797;80;21004;-71
2022/07/12 05:53:47;;;;;;;1.52;0.70;;;;;;;24.15;43.35;99792.84;1751549;80;21065;-70
2022/07/12 05:56:14;;;;;;;0.82;0.10;;;;;;;24.06;43.52;99791.86;1727815;80;21033;-74
2022/07/12 05:58:41;;;;;;;0.20;0.10;;;;;;;24.16;43.81;99790.36;1704378;83;20973;-73
2022/07/12 06:01:08;;;;;;;2.75;0.10;;;;;;;24.12;43.63;99792.05;1693696;83;21008;-70
2022/07/12 06:03:34;;;;;;;2.15;0.10;;;;;;;24.20;43.31;99794.67;1701279;83;21588;-71
2022/07/12 06:06:00;;;;;;;0.53;0.10;;;;;;;24.04;43.26;99796.23;1697738;83;21096;-73
2022/07/12 06:08:27;;;;;;;1.07;0.30;;;;;;;23.82;43.81;99798.11;1691408;83;21194;-69
2022/07/12 06:10:54;;;;;;;1.70;0.00;;;;;;;23.72;43.91;99798.22;1695831;83;21062;-66
2022/07/12 06:13:20;;;;;;;2.20;0.10;;;;;;;23.56;45.33;99798.91;1707976;83;21041;-67
2022/07/12 06:15:46;;;;;;;2.27;0.10;;;;;;;23.50;44.84;99804.95;1657125;85;21068;-68
2022/07/12 06:18:13;;;;;;;2.92;0.20;;;;;;;23.58;44.99;99801.34;1641734;86;21059;-76
2022/07/12 06:20:39;;;;;;;3.05;0.10;;;;;;;23.78;44.38;99805.77;1654276;85;21518;-77
2022/07/12 06:23:06;;;;;;;0.53;0.10;;;;;;;23.87;44.31;99804.87;1647760;85;20990;-79
2022/07/12 06:25:32;;;;;;;0.85;0.10;;;;;;;23.83;44.31;99802.47;1652293;85;21515;-74
2022/07/12 06:28:02;;;;;;;0.78;0.10;;;;;;;23.83;45.35;99813.91;1649897;85;21077;-75
2022/07/12 06:30:28;;;;;;;1.40;0.10;;;;;;;23.98;45.19;99810.18;1642318;85;21769;-74
2022/07/12 06:32:54;;;;;;;0.10;0.10;;;;;;;24.02;44.19;99812.05;1645159;85;20997;-81
2022/07/12 06:35:21;;;;;;;0.47;0.20;;;;;;;24.04;45.00;99815.28;1658846;85;21070;-71
2022/07/12 06:37:47;;;;;;;2.47;0.13;;;;;;;24.23;44.83;99819.97;1669383;85;21092;-74
2022/07/12 06:40:16;;;;;;;2.02;0.10;;;;;;;24.44;43.35;99815.86;1635774;85;21612;-79
2022/07/12 06:42:42;;;;;;;0.47;0.10;;;;;;;24.61;42.87;99828.20;1660548;85;21036;-80
2022/07/12 06:45:10;;;;;;;0.30;0.10;;;;;;;24.65;42.36;99827.30;1669289;83;21536;-74
2022/07/12 06:47:37;;;;;;;0.30;0.00;;;;;;;24.50;42.70;99828.85;1675923;84;21177;-78
2022/07/12 06:50:05;;;;;;;1.17;0.10;;;;;;;24.25;43.10;99834.90;1655642;84;21083;-77
2022/07/12 06:52:31;;;;;;;0.42;0.10;;;;;;;24.14;44.12;99843.48;1666142;85;21142;-72
2022/07/12 06:54:58;;;;;;;1.37;0.10;;;;;;;24.20;43.65;99834.95;1667873;84;21031;-72
2022/07/12 06:57:26;;;;;;;3.27;0.40;;;;;;;24.16;44.38;99844.81;1646325;85;21339;-74
2022/07/12 06:59:53;;;;;;;0.65;0.10;;;;;;;24.06;43.60;99843.59;1636812;86;21067;-79
2022/07/12 07:02:18;;;;;;;0.30;0.10;;;;;;;24.00;44.36;99850.20;1678684;83;21044;-73
2022/07/12 07:04:45;;;;;;;2.17;0.10;;;;;;;23.96;43.53;99854.58;1690409;83;21608;-77
2022/07/12 07:07:12;;;;;;;1.45;0.00;;;;;;;23.97;43.73;99858.38;1689026;83;21089;-74
2022/07/12 07:09:38;;;;;;;1.22;0.10;;;;;;;24.00;44.73;99852.36;1693763;83;21057;-74
2022/07/12 07:12:05;;;;;;;2.87;0.30;;;;;;;23.95;42.95;99863.86;1670394;83;21633;-72
2022/07/12 07:14:31;;;;;;;1.40;0.10;;;;;;;23.72;42.95;99860.80;1651542;85;21087;-75
2022/07/12 07:16:58;;;;;;;1.10;0.23;;;;;;;23.38;43.65;99867.09;1654567;85;21051;-62
2022/07/12 07:19:26;;;;;;;0.72;0.10;;;;;;;23.01;43.46;99867.06;1649740;85;21154;-68
2022/07/12 07:21:58;;;;;;;0.30;0.00;;;;;;;22.46;43.63;99854.09;1640504;85;21033;-61
2022/07/12 07:24:24;;;;;;;2.80;0.40;;;;;;;22.09;46.16;99871.02;1667837;82;21023;-68
2022/07/12 07:26:51;;;;;;;0.35;0.00;;;;;;;21.83;45.86;99870.30;1663879;84;21063;-73
2022/07/12 07:32:03;;;;;;;1.65;0.10;;;;;;;21.73;47.40;99859.44;1670207;84;21058;-67
2022/07/12 07:34:30;;;;;;;0.40;0.10;;;;;;;21.71;47.76;99864.33;1666709;84;21021;-69
2022/07/12 07:36:57;;;;;;;0.20;0.08;;;;;;;21.74;47.20;99866.52;1669119;85;21030;-70
2022/07/12 07:39:23;;;;;;;0.10;0.10;;;;;;;21.78;46.90;99871.66;1663150;85;21105;-67
2022/07/12 07:41:49;;;;;;;2.08;0.00;;;;;;;21.78;47.28;99871.09;1665205;85;21030;-69
2022/07/12 07:44:15;;;;;;;0.78;0.10;;;;;;;21.78;46.40;99877.08;1671564;83;21069;-68
2022/07/12 07:46:41;;;;;;;0.47;0.00;;;;;;;21.73;46.98;99873.00;1676135;84;21022;-69
2022/07/12 07:49:08;;;;;;;2.25;0.00;;;;;;;21.72;48.00;99871.40;1653315;84;21587;-67
2022/07/12 07:51:34;;;;;;;2.00;0.13;;;;;;;21.71;46.86;99873.83;1653756;84;21445;-67
2022/07/12 07:54:02;;;;;;;0.10;0.00;;;;;;;21.53;46.38;99885.52;1656350;84;21066;-66
2022/07/12 07:56:32;;;;;;;0.88;0.00;;;;;;;21.33;46.96;99890.91;1665593;83;21041;-65
2022/07/12 07:58:58;;;;;;;0.50;0.00;;;;;;;21.09;47.22;99890.61;1654858;85;21108;-68
2022/07/12 08:01:42;;;;;;;0.23;0.23;;;;;;;20.92;48.14;99887.59;1655456;84;21093;-69
2022/07/12 08:03:52;;;;;;;1.35;0.10;;;;;;;20.83;49.01;99895.16;1624365;86;21025;-69
2022/07/12 08:06:19;;;;;;;0.30;0.10;;;;;;;20.88;48.80;99885.70;1642035;86;21089;-65
2022/07/12 08:08:46;;;;;;;1.42;0.13;;;;;;;20.93;49.35;99882.45;1636872;86;21100;-66
2022/07/12 08:11:13;;;;;;;0.10;0.08;;;;;;;21.05;49.43;99888.97;1640067;85;21140;-66
2022/07/12 08:13:41;;;;;;;2.20;0.00;;;;;;;21.07;48.74;99886.80;1692738;83;21087;-65
2022/07/12 08:16:07;;;;;;;1.00;0.10;;;;;;;21.03;48.42;99890.33;1691208;83;21127;-69
2022/07/12 08:18:33;;;;;;;0.30;0.10;;;;;;;20.98;48.87;99883.83;1684581;83;21098;-68
2022/07/12 08:21:00;;;;;;;0.70;0.23;;;;;;;21.02;49.17;99880.05;1685554;83;21526;-65
2022/07/12 08:23:28;;;;;;;1.37;0.10;;;;;;;20.93;49.20;99873.52;1656374;84;21028;-67
2022/07/12 08:25:54;;;;;;;0.70;0.10;;;;;;;20.88;49.78;99887.05;1652254;85;21197;-68
2022/07/12 08:28:20;;;;;;;2.42;0.72;;;;;;;20.92;49.94;99889.49;1657436;85;21056;-69
2022/07/12 08:30:48;;;;;;;1.72;0.30;;;;;;;20.94;50.88;99891.39;1648021;85;21038;-68
2022/07/12 08:33:15;;;;;;;2.25;0.08;;;;;;;21.02;49.97;99888.17;1651458;85;21186;-67
2022/07/12 08:35:41;;;;;;;0.57;0.20;;;;;;;21.04;49.50;99891.42;1608496;87;21070;-66
2022/07/12 08:38:08;;;;;;;0.35;0.10;;;;;;;20.95;49.22;99893.84;1649978;85;21059;-68
2022/07/12 08:40:34;;;;;;;0.28;0.00;;;;;;;20.89;49.70;99891.37;1643006;85;21305;-68
2022/07/12 08:43:00;;;;;;;4.05;0.10;;;;;;;20.84;50.25;99895.45;1648776;85;21572;-66
2022/07/12 08:45:27;;;;;;;0.20;0.10;;;;;;;20.82;50.33;99893.00;1640693;86;21105;-66
2022/07/12 08:47:53;;;;;;;0.60;0.10;;;;;;;20.88;50.59;99891.92;1681913;84;21078;-66
2022/07/12 08:50:24;;;;;;;0.57;0.20;;;;;;;21.00;49.99;99883.53;1682229;83;21077;-67
2022/07/12 08:52:55;;;;;;;1.82;0.10;;;;;;;21.12;49.20;99877.34;1682817;83;21093;-67
2022/07/12 08:55:29;;;;;;;0.20;0.10;;;;;;;21.19;49.03;99881.12;1679195;83;21522;-67
2022/07/12 08:57:59;;;;;;;0.42;0.20;;;;;;;21.05;48.93;99849.69;1661503;85;21068;-66
2022/07/12 09:00:27;;;;;;;0.13;0.10;;;;;;;21.31;48.74;99881.68;1654043;85;21139;-68
2022/07/12 09:02:57;;;;;;;0.53;0.00;;;;;;;21.34;47.97;99876.25;1640019;85;21580;-67
2022/07/12 09:05:30;;;;;;;0.30;0.10;;;;;;;21.38;48.20;99876.00;1634598;85;21073;-65
2022/07/12 09:08:09;;;;;;;0.10;0.00;;;;;;;21.43;48.00;99881.41;1631978;85;21593;-66
2022/07/12 09:10:55;;;;;;;0.20;0.08;;;;;;;21.36;47.41;99872.20;1614473;87;22043;-66
2022/07/12 09:13:52;;;;;;;1.80;0.10;;;;;;;21.39;47.50;99887.91;1678980;84;21030;-68
2022/07/12 09:16:23;;;;;;;0.03;0.03;;;;;;;21.39;47.61;99892.52;1664117;84;21110;-64
2022/07/12 09:18:51;;;;;;;0.88;0.33;;;;;;;21.49;47.69;99883.60;1665447;84;21584;-65
2022/07/12 09:21:29;;;;;;;0.30;0.10;;;;;;;21.61;47.51;99876.56;1666371;84;21098;-67
2022/07/12 09:23:58;;;;;;;0.28;0.10;;;;;;;21.67;46.54;99888.47;1688785;84;20991;-66
2022/07/12 09:26:30;;;;;;;0.50;0.10;;;;;;;21.70;45.94;99890.66;1692847;83;21514;-66
2022/07/12 09:29:09;;;;;;;0.53;0.25;;;;;;;21.72;46.46;99887.13;1683936;84;22121;-66
2022/07/12 09:37:16;;;;;;;0.00;0.00;;;;;;;21.69;45.47;99890.92;1677963;84;21068;-65
2022/07/12 09:39:43;;;;;;;0.17;0.00;;;;;;;21.64;44.56;99897.70;1682855;84;21031;-68
2022/07/12 09:42:12;;;;;;;0.45;0.00;;;;;;;21.55;45.11;99891.47;1681516;84;21062;-68
2022/07/12 09:44:40;;;;;;;1.95;0.20;;;;;;;21.54;44.81;99891.19;1679395;84;21026;-65
2022/07/12 09:47:13;;;;;;;0.20;0.00;;;;;;;21.53;44.17;99896.36;1680727;84;21102;-68
2022/07/12 09:49:41;;;;;;;1.25;0.03;;;;;;;21.56;44.10;99896.34;1684789;84;21006;-67
2022/07/12 09:52:21;;;;;;;0.10;0.10;;;;;;;21.60;44.03;99897.97;1690605;84;21527;-67
2022/07/12 09:54:52;;;;;;;6.62;0.85;;;;;;;21.61;45.24;99895.00;1679742;84;20997;-65
2022/07/12 09:57:28;;;;;;;0.37;0.10;;;;;;;21.66;44.89;99895.00;1611567;86;21035;-66
2022/07/12 10:00:00;;;;;;;0.40;0.00;;;;;;;21.72;44.63;99892.55;1626417;86;21578;-67
2022/07/12 10:02:29;;;;;;;0.40;0.00;;;;;;;21.81;44.72;99883.84;1629133;86;21023;-65
2022/07/12 10:04:56;;;;;;;0.88;0.10;;;;;;;21.90;44.44;99883.55;1626070;86;21091;-64
2022/07/12 10:07:24;;;;;;;1.15;0.08;;;;;;;21.96;44.04;99886.00;1626751;86;21087;-66
2022/07/12 10:09:53;;;;;;;0.90;0.10;;;;;;;21.96;43.55;99886.00;1627511;86;21066;-65
2022/07/12 10:12:22;;;;;;;0.30;0.20;;;;;;;21.89;43.01;99885.46;1632164;86;21097;-67
2022/07/12 10:15:02;;;;;;;1.00;0.00;;;;;;;21.87;43.29;99890.35;1673022;84;20996;-66
2022/07/12 10:17:30;;;;;;;0.37;0.00;;;;;;;21.87;43.58;99883.57;1677225;84;21026;-64
2022/07/12 10:20:22;;;;;;;0.30;0.10;;;;;;;21.90;43.80;99879.48;1671773;84;21142;-65
2022/07/12 10:22:48;;;;;;;2.52;0.10;;;;;;;21.88;44.05;99868.09;1626123;86;21066;-68
2022/07/12 10:25:32;;;;;;;0.20;0.10;;;;;;;21.96;43.88;99877.86;1675463;84;21027;-66
2022/07/12 10:28:02;;;;;;;1.55;0.20;;;;;;;21.97;43.96;99868.61;1672116;84;21024;-68
2022/07/12 10:30:29;;;;;;;0.25;0.10;;;;;;;22.00;43.92;99872.70;1666539;84;21068;-64
2022/07/12 10:32:59;;;;;;;0.70;0.13;;;;;;;22.00;44.49;99866.44;1669641;84;21341;-65
2022/07/12 10:35:29;;;;;;;3.98;0.10;;;;;;;21.98;43.92;99868.06;1606114;88;21149;-65
2022/07/12 10:38:16;;;;;;;0.57;0.00;;;;;;;21.92;43.38;99871.33;1585786;90;21042;-65
2022/07/12 10:40:45;;;;;;;0.00;0.00;;;;;;;21.85;43.56;99872.19;1582513;89;21043;-70
2022/07/12 10:43:16;;;;;;;1.05;0.00;;;;;;;21.92;43.63;99874.05;1570934;89;21122;-66
2022/07/12 10:45:46;;;;;;;0.03;0.00;;;;;;;22.06;43.50;99874.85;1667941;84;21087;-67
2022/07/12 10:48:19;;;;;;;0.23;0.00;;;;;;;22.19;44.54;99870.71;1653883;85;21552;-67
2022/07/12 10:50:56;;;;;;;0.30;0.10;;;;;;;22.23;43.99;99875.88;1672126;84;21157;-67
2022/07/12 10:53:34;;;;;;;0.62;0.13;;;;;;;22.29;43.84;99877.51;1654038;85;21031;-67
2022/07/12 10:56:17;;;;;;;0.20;0.00;;;;;;;22.28;43.64;99884.02;1651603;84;21117;-65
2022/07/12 10:58:55;;;;;;;0.10;0.10;;;;;;;22.20;43.59;99887.28;1663786;84;21092;-65
2022/07/12 11:01:30;;;;;;;0.47;0.08;;;;;;;22.20;44.42;99884.02;1652338;85;21038;-67
2022/07/12 11:04:10;;;;;;;0.10;0.00;;;;;;;22.21;44.58;99897.87;1646802;85;21298;-66
2022/07/12 11:06:41;;;;;;;1.17;0.30;;;;;;;22.13;44.87;99891.63;1643890;85;21081;-66
2022/07/12 11:09:12;;;;;;;1.00;0.20;;;;;;;22.01;44.66;99894.66;1641897;85;21123;-64
2022/07/12 11:11:48;;;;;;;1.27;0.10;;;;;;;21.96;45.12;99896.85;1645648;85;21098;-65
2022/07/12 11:14:30;;;;;;;0.53;0.10;;;;;;;21.92;44.87;99891.68;1655676;85;21051;-64
2022/07/12 11:16:57;;;;;;;2.52;0.00;;;;;;;21.92;44.96;99888.97;1654391;85;21063;-66
2022/07/12 11:19:29;;;;;;;1.40;0.03;;;;;;;21.91;44.28;99888.71;1659290;85;21517;-68
2022/07/12 11:21:58;;;;;;;0.10;0.05;;;;;;;21.91;44.51;99891.42;1651458;85;21065;-65
2022/07/12 11:24:28;;;;;;;0.00;0.00;;;;;;;21.90;45.25;99878.94;1709313;82;21068;-69
2022/07/12 11:26:56;;;;;;;0.10;0.00;;;;;;;21.76;44.68;99871.11;1664653;85;21090;-70
2022/07/12 11:29:23;;;;;;;0.40;0.00;;;;;;;21.64;45.57;99860.53;1703481;82;21125;-70
2022/07/12 11:31:49;;;;;;;0.35;0.10;;;;;;;21.56;45.49;99851.05;1702378;82;20998;-68
2022/07/12 11:34:23;;;;;;;0.00;0.00;;;;;;;21.53;46.03;99847.55;1690194;82;21593;-72
2022/07/12 11:37:04;;;;;;;2.72;0.10;;;;;;;21.57;46.07;99853.24;1672951;84;21066;-75
2022/07/12 11:39:40;;;;;;;3.50;0.10;;;;;;;21.63;45.89;99862.99;1674087;84;21027;-77
2022/07/12 11:42:10;;;;;;;8.78;0.20;;;;;;;21.66;47.09;99876.53;1679337;84;21115;-78
2022/07/12 11:44:48;;;;;;;0.57;0.10;;;;;;;21.63;47.77;99884.69;1665239;84;21070;-75
2022/07/12 11:47:18;;;;;;;0.40;0.00;;;;;;;21.52;49.46;99889.84;1679575;84;21050;-74
2022/07/12 11:49:53;;;;;;;2.98;0.10;;;;;;;21.39;49.59;99902.02;1678876;84;21058;-76
2022/07/12 11:52:23;;;;;;;0.68;0.00;;;;;;;21.28;49.71;99899.83;1680698;84;21067;-74
2022/07/12 11:54:52;;;;;;;1.85;0.00;;;;;;;21.30;49.52;99911.77;1667732;84;21098;-74